createdAt,value
2022-08-26T00:00:00.217Z,16.6
2022-08-26T00:05:00.170Z,16.7
2022-08-26T00:10:00.168Z,16.6
2022-08-26T00:15:00.161Z,16.6
2022-08-26T00:20:00.166Z,16.6
2022-08-26T00:25:00.162Z,16.6
2022-08-26T00:30:00.174Z,16.6
2022-08-26T00:35:00.172Z,16.6
2022-08-26T00:40:00.816Z,16.6
2022-08-26T00:45:00.175Z,16.5
2022-08-26T00:50:00.161Z,16.4
2022-08-26T00:55:00.163Z,16.4
2022-08-26T01:00:00.209Z,16.4
2022-08-26T01:05:00.157Z,16.2
2022-08-26T01:10:00.192Z,16.2
2022-08-26T01:15:00.158Z,16.2
2022-08-26T01:20:00.168Z,16.2
2022-08-26T01:25:00.159Z,16.2
2022-08-26T01:30:00.157Z,16.2
2022-08-26T01:35:00.158Z,16.1
2022-08-26T01:40:00.267Z,16.1
2022-08-26T01:45:00.171Z,16
2022-08-26T01:50:00.198Z,16
2022-08-26T01:55:00.166Z,16
2022-08-26T02:00:00.158Z,15.9
2022-08-26T02:05:00.792Z,15.9
2022-08-26T02:10:00.211Z,15.8
2022-08-26T02:15:00.177Z,15.8
2022-08-26T02:20:00.214Z,15.8
2022-08-26T02:25:00.167Z,15.7
2022-08-26T02:30:00.157Z,15.6
2022-08-26T02:35:00.156Z,15.5
2022-08-26T02:40:00.347Z,15.4
2022-08-26T02:45:00.182Z,15.4
2022-08-26T02:50:00.160Z,15.3
2022-08-26T02:55:00.170Z,15.3
2022-08-26T03:00:00.221Z,15.2
2022-08-26T03:05:02.006Z,15.2
2022-08-26T03:10:00.169Z,15.2
2022-08-26T03:15:00.155Z,15.2
2022-08-26T03:20:00.187Z,15.2
2022-08-26T03:25:00.258Z,15.2
2022-08-26T03:30:00.222Z,15.2
2022-08-26T03:35:00.169Z,15.1
2022-08-26T03:40:00.339Z,15.1
2022-08-26T03:45:00.171Z,15.1
2022-08-26T03:50:00.160Z,15
2022-08-26T03:55:00.174Z,14.9
2022-08-26T04:00:00.177Z,14.9
2022-08-26T04:05:00.178Z,14.9
2022-08-26T04:10:00.243Z,14.9
2022-08-26T04:15:00.155Z,14.9
2022-08-26T04:20:00.154Z,14.9
2022-08-26T04:25:00.154Z,14.9
2022-08-26T04:30:00.177Z,14.8
2022-08-26T04:35:00.167Z,14.8
2022-08-26T04:40:00.368Z,14.8
2022-08-26T04:45:00.160Z,14.8
2022-08-26T04:50:00.190Z,14.8
2022-08-26T04:55:00.172Z,14.8
2022-08-26T05:00:00.175Z,14.8
2022-08-26T05:15:00.172Z,15
2022-08-26T05:20:00.176Z,15.1
2022-08-26T05:25:00.164Z,15.1
2022-08-26T05:30:00.171Z,15.2
2022-08-26T05:35:00.156Z,15.2
2022-08-26T05:40:00.274Z,15.4
2022-08-26T05:45:00.181Z,15.5
2022-08-26T05:50:00.175Z,15.6
2022-08-26T14:40:00.308Z,26.6
2022-08-26T14:50:00.181Z,26.6
2022-08-26T14:55:00.170Z,26.6
2022-08-26T15:00:00.179Z,26.7
2022-08-26T15:05:00.189Z,26.6
2022-08-26T15:10:00.172Z,26.4
2022-08-26T15:15:00.173Z,26.4
2022-08-26T15:20:00.175Z,26.7
2022-08-26T15:25:00.181Z,28.7
2022-08-26T15:30:00.171Z,28.3
2022-08-26T15:35:00.157Z,27.4
2022-08-26T15:40:00.282Z,27.1
2022-08-26T15:45:00.558Z,26.9
2022-08-26T15:50:00.188Z,26.8
2022-08-26T15:55:00.206Z,26.6
2022-08-26T16:00:00.182Z,26.3
2022-08-26T16:05:00.160Z,26.1
2022-08-26T16:10:00.171Z,26.1
2022-08-26T16:15:00.162Z,26
2022-08-26T16:20:00.174Z,25.9
2022-08-26T16:25:00.157Z,25.9
2022-08-26T16:30:00.307Z,25.8
2022-08-26T16:35:00.154Z,25.5
2022-08-26T16:40:00.269Z,25.2
2022-08-26T16:45:00.163Z,24.9
2022-08-26T16:50:00.362Z,24.6
2022-08-26T16:55:00.170Z,24.6
2022-08-26T17:00:00.159Z,24.4
2022-08-26T17:05:00.170Z,24.2
2022-08-26T17:10:00.170Z,23.9
2022-08-26T17:15:00.172Z,23.7
2022-08-26T17:20:00.218Z,23.5
2022-08-26T17:25:00.174Z,23.3
2022-08-26T17:30:00.227Z,23.1
2022-08-26T17:35:00.174Z,23
2022-08-26T17:40:00.611Z,22.9
2022-08-26T17:45:00.164Z,22.8
2022-08-26T17:50:00.198Z,22.6
2022-08-26T17:55:00.169Z,22.5
2022-08-26T18:00:00.210Z,22.4
2022-08-26T18:05:00.183Z,22.2
2022-08-26T18:10:00.241Z,22.1
2022-08-26T18:15:00.168Z,22
2022-08-26T18:20:00.344Z,22
2022-08-26T18:25:00.166Z,21.9
2022-08-26T18:30:00.255Z,21.8
2022-08-26T18:35:00.167Z,21.8
2022-08-26T18:40:00.298Z,21.7
2022-08-26T18:45:00.179Z,21.6
2022-08-26T18:50:00.199Z,21.6
2022-08-26T18:55:00.159Z,21.5
2022-08-26T19:00:00.187Z,21.5
2022-08-26T19:05:00.183Z,21.4
2022-08-26T19:10:00.187Z,21.4
2022-08-26T19:15:00.176Z,21.4
2022-08-26T19:20:00.189Z,21.3
2022-08-26T19:25:00.181Z,21.3
2022-08-26T19:30:00.230Z,21.3
2022-08-26T19:35:00.170Z,21.2
2022-08-26T19:40:00.302Z,21.2
2022-08-26T19:45:00.214Z,21.2
2022-08-26T19:50:00.186Z,21.1
2022-08-26T19:55:00.581Z,21.1
2022-08-26T20:00:00.208Z,21.1
2022-08-26T20:05:00.217Z,21.1
2022-08-26T20:10:00.274Z,21.1
2022-08-26T20:15:00.303Z,21.1
2022-08-26T20:20:00.261Z,21.1
2022-08-26T20:25:00.281Z,21
2022-08-26T20:30:00.179Z,20.9
2022-08-26T20:35:00.174Z,21
2022-08-26T20:40:00.326Z,20.8
2022-08-26T20:45:00.165Z,20.4
2022-08-26T20:50:00.161Z,20.3
2022-08-26T20:55:01.404Z,20.4
2022-08-26T21:00:00.266Z,20.2
2022-08-26T21:05:00.367Z,19.8
2022-08-26T21:10:00.204Z,19.6
2022-08-26T21:15:00.181Z,19.4
2022-08-26T21:20:00.168Z,19.3
2022-08-26T21:25:00.192Z,19.2
2022-08-26T21:30:00.262Z,19.2
2022-08-26T21:35:00.172Z,19.2
2022-08-26T21:40:00.283Z,19.2
2022-08-26T21:45:00.161Z,19.2
2022-08-26T21:50:00.204Z,19.1
2022-08-26T21:55:00.161Z,19.2
2022-08-26T22:00:00.160Z,19.2
2022-08-26T22:05:00.164Z,19.3
2022-08-26T22:10:00.188Z,19.3
2022-08-26T22:15:00.164Z,19.2
2022-08-26T22:20:00.161Z,19
2022-08-26T22:25:00.181Z,18.8
2022-08-26T22:30:00.175Z,18.8
2022-08-26T22:35:00.178Z,18.8
2022-08-26T22:40:00.303Z,18.9
2022-08-26T22:45:00.159Z,18.8
2022-08-26T22:50:01.057Z,18.6
2022-08-26T22:55:00.169Z,18.6
2022-08-26T23:00:00.758Z,18.6
2022-08-26T23:05:00.169Z,18.6
2022-08-26T23:10:00.250Z,18.4
2022-08-26T23:15:00.264Z,18.4
2022-08-26T23:20:00.161Z,18.3
2022-08-26T23:25:00.294Z,18.3
2022-08-26T23:30:01.068Z,18.4
2022-08-26T23:35:00.226Z,18.3
2022-08-26T23:40:00.273Z,18.3
2022-08-26T23:45:00.165Z,18.3
2022-08-26T23:50:00.141Z,18.4
2022-08-26T23:55:00.277Z,18.3
